Time;durP1;ratioP1;P1;durP2;ratioP2;P2;SDS_P1;SDS_P2;PMS_P1;PMS_P2;Temp;Humidity;BMP_temperature;BMP_pressure;BME280_temperature;BME280_humidity;BME280_pressure;Samples;Min_cycle;Max_cycle;Signal;HPM_P1;HPM_P2
2023/11/26 00:00:17;;;;;;;12.43;5.80;;;25.90;2201.60;;;;;;5122346;27;20038;-62
2023/11/26 00:02:44;;;;;;;11.80;5.47;;;25.90;2201.60;;;;;;5120345;27;20475;-71
2023/11/26 00:05:10;;;;;;;9.02;5.10;;;;;;;;;;5109591;27;20054;-63
2023/11/26 00:07:47;;;;;;;11.40;5.40;;;;;;;;;;5117880;27;20042;-66
2023/11/26 00:10:19;;;;;;;10.18;5.60;;;;;;;;;;5095835;27;20035;-63
2023/11/26 00:12:48;;;;;;;10.95;5.20;;;;;;;;;;5112304;27;20080;-63
2023/11/26 00:15:17;;;;;;;9.82;5.07;;;25.80;2201.60;;;;;;5109751;27;20024;-61
2023/11/26 00:17:43;;;;;;;11.13;5.20;;;;;;;;;;5121604;27;20046;-61
2023/11/26 00:20:09;;;;;;;10.27;5.10;;;;;;;;;;5120967;28;20034;-61
2023/11/26 00:22:38;;;;;;;10.52;5.30;;;25.80;2201.60;;;;;;5120733;27;20039;-62
2023/11/26 00:25:04;;;;;;;8.32;4.53;;;25.60;2201.60;;;;;;5119726;27;20098;-63
2023/11/26 00:27:30;;;;;;;8.95;4.35;;;0.80;2201.60;;;;;;5109609;28;20043;-62
2023/11/26 00:29:57;;;;;;;10.15;4.63;;;0.70;2201.60;;;;;;5114177;28;20048;-67
2023/11/26 00:32:26;;;;;;;9.27;4.93;;;0.70;2201.60;;;;;;5109367;27;20383;-61
2023/11/26 00:34:52;;;;;;;10.88;5.68;;;0.80;2201.60;;;;;;5116292;28;20034;-62
2023/11/26 00:37:18;;;;;;;11.13;5.80;;;0.70;2201.60;;;;;;5134294;27;20034;-65
2023/11/26 00:39:44;;;;;;;11.13;5.95;;;0.70;2201.60;;;;;;5133964;27;20076;-64
2023/11/26 00:42:13;;;;;;;10.15;4.75;;;0.70;2201.60;;;;;;5133692;28;20106;-61
2023/11/26 00:44:38;;;;;;;11.20;5.07;;;0.60;2201.60;;;;;;5134396;27;20050;-62
2023/11/26 00:47:04;;;;;;;10.25;5.05;;;0.60;2201.60;;;;;;5131709;27;20023;-63
2023/11/26 00:49:31;;;;;;;9.70;5.13;;;0.60;2201.60;;;;;;5104637;28;20023;-70
2023/11/26 00:51:57;;;;;;;11.88;5.20;;;0.60;2201.60;;;;;;5110604;28;20020;-63
2023/11/26 00:54:23;;;;;;;12.13;5.50;;;0.50;2201.60;;;;;;5113832;28;20043;-61
2023/11/26 00:56:51;;;;;;;10.32;5.60;;;0.60;2201.60;;;;;;5113336;28;20049;-61
2023/11/26 00:59:19;;;;;;;11.82;5.70;;;0.50;2201.60;;;;;;5113522;28;20058;-63
2023/11/26 01:01:48;;;;;;;11.05;5.80;;;0.60;2201.60;;;;;;5113821;28;20041;-66
2023/11/26 01:04:13;;;;;;;10.60;5.45;;;0.60;2201.60;;;;;;5113850;28;20027;-63
2023/11/26 01:06:39;;;;;;;12.30;6.13;;;0.50;2201.60;;;;;;5111651;28;20024;-66
2023/11/26 01:09:05;;;;;;;13.23;6.03;;;0.50;2201.60;;;;;;5105583;28;20036;-64
2023/11/26 01:11:37;;;;;;;12.73;6.78;;;0.40;1920.00;;;;;;5113594;28;20024;-71
2023/11/26 01:14:06;;;;;;;16.90;7.68;;;0.40;2201.60;;;;;;5112949;28;20024;-66
2023/11/26 01:16:32;;;;;;;15.68;7.18;;;0.30;2201.60;;;;;;5114369;28;20387;-67
2023/11/26 01:18:59;;;;;;;13.93;6.85;;;0.30;2201.60;;;;;;5097573;28;20036;-65
2023/11/26 01:21:25;;;;;;;11.18;6.22;;;0.30;2201.60;;;;;;5111797;28;20027;-62
2023/11/26 01:23:53;;;;;;;13.00;6.13;;;0.30;2201.60;;;;;;5117312;28;20053;-61
2023/11/26 01:26:18;;;;;;;12.80;6.40;;;0.20;2201.60;;;;;;5111762;28;20349;-66
2023/11/26 01:28:44;;;;;;;13.50;5.65;;;0.40;2201.60;;;;;;5108675;28;20031;-66
2023/11/26 01:31:13;;;;;;;9.73;5.80;;;0.20;2201.60;;;;;;5117660;27;20063;-64
2023/11/26 01:33:39;;;;;;;9.93;5.90;;;0.10;2201.60;;;;;;5117384;27;20059;-67
2023/11/26 01:36:09;;;;;;;10.43;5.70;;;0.10;2201.60;;;;;;5119902;27;20024;-64
2023/11/26 01:38:35;;;;;;;13.40;5.65;;;0.10;2201.60;;;;;;5118861;27;20513;-66
2023/11/26 01:41:01;;;;;;;9.88;5.22;;;0.10;2201.60;;;;;;5120691;27;20015;-63
2023/11/26 01:43:27;;;;;;;10.10;5.20;;;0.10;2201.60;;;;;;5137643;27;20090;-66
2023/11/26 01:46:05;;;;;;;9.93;5.30;;;0.10;2201.60;;;;;;5113969;27;20375;-65
2023/11/26 01:48:31;;;;;;;10.35;5.38;;;0.10;2201.60;;;;;;5098539;28;20404;-63
2023/11/26 01:50:57;;;;;;;10.57;5.18;;;0.10;2201.60;;;;;;5096362;28;20081;-65
2023/11/26 01:53:23;;;;;;;10.25;5.00;;;0.10;2201.60;;;;;;5096150;28;20381;-64
2023/11/26 01:55:52;;;;;;;10.32;5.13;;;0.00;2201.60;;;;;;5121661;27;20037;-65
2023/11/26 01:58:18;;;;;;;11.52;5.32;;;0.00;2201.60;;;;;;5116605;28;20104;-65
2023/11/26 02:00:47;;;;;;;13.73;5.60;;;0.00;2201.60;;;;;;5116914;28;20047;-62
2023/11/26 02:03:13;;;;;;;12.43;5.32;;;0.00;2201.60;;;;;;5116549;28;20539;-62
2023/11/26 02:05:39;;;;;;;10.73;5.80;;;0.00;2201.60;;;;;;5110436;28;20110;-62
2023/11/26 02:08:05;;;;;;;10.27;5.70;;;;;;;;;;5112888;28;20479;-64
2023/11/26 02:10:31;;;;;;;11.90;6.05;;;;;;;;;;5116048;28;21090;-61
2023/11/26 02:13:01;;;;;;;12.88;5.80;;;;;;;;;;5115762;28;20165;-60
2023/11/26 02:15:29;;;;;;;11.60;5.80;;;;;;;;;;5116269;28;20518;-64
2023/11/26 02:17:55;;;;;;;10.00;5.38;;;;;;;;;;5116224;27;20035;-63
2023/11/26 02:20:22;;;;;;;10.95;5.50;;;;;;;;;;5115911;28;20024;-62
2023/11/26 02:22:49;;;;;;;11.05;5.18;;;;;;;;;;5115871;28;20035;-62
2023/11/26 02:25:15;;;;;;;14.38;5.72;;;;;;;;;;5112800;28;20077;-62
2023/11/26 02:27:41;;;;;;;15.40;5.60;;;0.30;2201.60;;;;;;5107825;28;20019;-60
2023/11/26 02:30:10;;;;;;;10.88;5.47;;;0.00;2201.60;;;;;;5114805;28;20494;-60
2023/11/26 02:32:36;;;;;;;12.02;5.70;;;0.00;2201.60;;;;;;5115262;28;20057;-62
2023/11/26 02:35:03;;;;;;;13.43;5.15;;;12.90;2201.60;;;;;;5115356;28;20027;-62
2023/11/26 02:37:29;;;;;;;9.80;5.32;;;0.00;2201.60;;;;;;5114358;28;20471;-63
2023/11/26 02:39:55;;;;;;;11.52;5.20;;;0.00;2201.60;;;;;;5115539;28;20058;-62
2023/11/26 02:42:22;;;;;;;10.43;5.00;;;0.20;2201.60;;;;;;5115783;28;20027;-63
2023/11/26 02:44:48;;;;;;;10.32;4.90;;;0.00;2201.60;;;;;;5111226;28;20038;-62
2023/11/26 02:47:14;;;;;;;8.80;5.10;;;;;;;;;;5109970;28;20024;-61
2023/11/26 02:49:42;;;;;;;11.05;4.80;;;;;;;;;;5115240;28;20035;-62
2023/11/26 02:52:11;;;;;;;10.68;4.63;;;;;;;;;;5115549;28;20015;-61
2023/11/26 02:54:37;;;;;;;11.02;4.90;;;;;;;;;;5115310;28;20057;-62
2023/11/26 02:57:03;;;;;;;9.18;4.63;;;;;;;;;;5115696;28;20042;-63
2023/11/26 02:59:29;;;;;;;7.95;4.32;;;0.70;2201.60;;;;;;5115113;28;20129;-62
2023/11/26 03:01:58;;;;;;;8.15;4.35;;;;;;;;;;5115430;28;20023;-64
2023/11/26 03:04:24;;;;;;;11.30;4.63;;;;;;;;;;5114333;28;20020;-63
2023/11/26 03:06:52;;;;;;;11.38;5.00;;;;;;;;;;5108269;28;20023;-64
2023/11/26 03:14:53;;;;;;;;;;;;;;;;;;5114729;28;20045;-61
2023/11/26 03:17:22;;;;;;;10.25;4.38;;;;;;;;;;5115221;28;20359;-63
2023/11/26 03:19:49;;;;;;;10.50;4.43;;;;;;;;;;5116801;27;20022;-63
2023/11/26 03:22:15;;;;;;;8.98;4.40;;;0.90;2201.60;;;;;;5107741;28;20027;-63
2023/11/26 03:24:42;;;;;;;7.10;3.90;;;;;;;;;;5111601;28;20024;-62
2023/11/26 03:27:08;;;;;;;7.72;3.83;;;;;;;;;;5107382;28;20020;-60
2023/11/26 03:29:34;;;;;;;9.77;3.90;;;25.60;2201.60;;;;;;5116197;27;20024;-63
2023/11/26 03:32:00;;;;;;;7.63;3.97;;;0.80;2201.60;;;;;;5135254;27;20016;-61
2023/11/26 03:34:28;;;;;;;7.20;3.85;;;0.90;2201.60;;;;;;5135223;27;20114;-63
2023/11/26 03:36:54;;;;;;;9.98;4.40;;;0.80;2201.60;;;;;;5117320;27;20452;-64
2023/11/26 03:39:21;;;;;;;8.55;4.18;;;;;;;;;;5114541;28;20127;-63
2023/11/26 03:41:48;;;;;;;10.25;4.25;;;25.70;2201.60;;;;;;5114556;28;20015;-63
2023/11/26 03:44:16;;;;;;;9.18;4.60;;;0.80;2201.60;;;;;;5113776;28;20019;-64
2023/11/26 03:46:42;;;;;;;9.18;4.45;;;0.80;2201.60;;;;;;5107742;28;20028;-63
2023/11/26 03:49:08;;;;;;;8.43;4.45;;;0.90;2201.60;;;;;;5112735;28;20031;-63
2023/11/26 03:51:34;;;;;;;8.90;4.60;;;0.90;2201.60;;;;;;5114477;28;20023;-63
2023/11/26 03:53:59;;;;;;;10.25;4.40;;;25.60;2201.60;;;;;;5113091;28;20031;-62
2023/11/26 03:56:25;;;;;;;9.63;4.40;;;25.60;2201.60;;;;;;5113257;28;20023;-61
2023/11/26 03:58:51;;;;;;;8.70;4.45;;;25.60;2201.60;;;;;;5113993;28;20047;-64
2023/11/26 04:01:16;;;;;;;10.95;5.00;;;25.60;2201.60;;;;;;5113067;28;20051;-62
2023/11/26 04:03:43;;;;;;;10.80;4.65;;;25.70;2201.60;;;;;;5112918;28;20019;-63
2023/11/26 04:06:09;;;;;;;9.52;4.78;;;25.70;2201.60;;;;;;5108539;28;20352;-63
2023/11/26 04:08:35;;;;;;;11.77;4.95;;;25.70;2201.60;;;;;;5109855;28;20058;-63
2023/11/26 04:11:01;;;;;;;9.48;4.80;;;25.70;2201.60;;;;;;5114378;28;20042;-63
2023/11/26 04:13:27;;;;;;;9.25;4.75;;;25.70;2201.60;;;;;;5113788;28;20030;-63
2023/11/26 04:15:58;;;;;;;8.55;4.53;;;25.70;2201.60;;;;;;5113767;28;20395;-63
2023/11/26 04:18:25;;;;;;;10.05;5.25;;;25.60;2201.60;;;;;;5113955;28;20035;-63
2023/11/26 04:20:51;;;;;;;9.52;5.25;;;25.70;2201.60;;;;;;5114143;28;20020;-63
2023/11/26 04:23:20;;;;;;;8.73;4.47;;;25.70;2201.60;;;;;;5114262;28;20062;-64
2023/11/26 04:25:47;;;;;;;8.23;4.22;;;25.70;2201.60;;;;;;5109916;28;20024;-63
2023/11/26 04:28:12;;;;;;;11.02;5.65;;;25.80;2201.60;;;;;;5108052;28;20506;-62
2023/11/26 04:30:39;;;;;;;7.70;3.83;;;25.80;2201.60;;;;;;5113873;28;20031;-63
2023/11/26 04:33:04;;;;;;;10.18;4.78;;;25.80;2201.60;;;;;;5113637;28;20054;-62
2023/11/26 04:35:30;;;;;;;8.98;4.85;;;25.80;2201.60;;;;;;5113845;28;20103;-66
2023/11/26 04:37:56;;;;;;;11.38;5.38;;;25.80;2201.60;;;;;;5112998;28;20035;-63
2023/11/26 04:40:22;;;;;;;10.40;5.28;;;25.80;2201.60;;;;;;5113670;28;20027;-63
2023/11/26 04:42:47;;;;;;;9.25;5.35;;;25.80;2201.60;;;;;;5113977;28;20028;-65
2023/11/26 04:45:20;;;;;;;9.18;5.03;;;25.90;2201.60;;;;;;5104861;28;20027;-61
2023/11/26 04:47:46;;;;;;;12.75;5.13;;;25.90;2201.60;;;;;;5106475;28;20036;-65
2023/11/26 04:50:12;;;;;;;9.73;5.43;;;25.90;2201.60;;;;;;5113955;28;20019;-64
2023/11/26 04:52:38;;;;;;;11.15;5.50;;;25.90;2201.60;;;;;;5113894;28;20376;-63
2023/11/26 04:55:04;;;;;;;9.77;6.07;;;25.90;2201.60;;;;;;5115621;28;20019;-64
2023/11/26 04:57:30;;;;;;;11.13;5.20;;;25.90;2201.60;;;;;;5117618;28;20039;-63
2023/11/26 04:59:56;;;;;;;12.55;5.90;;;25.90;2201.60;;;;;;5117650;28;20023;-64
2023/11/26 05:02:21;;;;;;;9.77;5.32;;;26.00;2201.60;;;;;;5116431;28;20147;-65
2023/11/26 05:04:48;;;;;;;11.02;5.30;;;26.00;2201.60;;;;;;5114599;28;20098;-64
2023/11/26 05:07:15;;;;;;;10.52;5.28;;;26.00;2201.60;;;;;;5110012;28;20024;-63
2023/11/26 05:09:41;;;;;;;9.98;5.10;;;26.10;2201.60;;;;;;5116939;28;20098;-64
2023/11/26 05:12:07;;;;;;;8.27;4.97;;;26.10;2201.60;;;;;;5117333;28;20103;-63
2023/11/26 05:14:36;;;;;;;10.85;5.65;;;26.10;2201.60;;;;;;5117276;28;20028;-65
2023/11/26 05:17:01;;;;;;;9.82;5.03;;;26.20;2201.60;;;;;;5117067;28;20110;-63
2023/11/26 05:19:27;;;;;;;9.25;4.95;;;26.20;2201.60;;;;;;5117328;28;20605;-64
2023/11/26 05:21:53;;;;;;;9.45;5.45;;;26.20;2201.60;;;;;;5116510;28;20024;-64
2023/11/26 05:24:18;;;;;;;8.48;5.25;;;26.30;2201.60;;;;;;5114434;28;20175;-63
2023/11/26 05:26:44;;;;;;;9.82;5.65;;;26.30;2201.60;;;;;;5115750;28;20023;-63
2023/11/26 05:29:10;;;;;;;10.75;5.40;;;26.30;2201.60;;;;;;5117006;28;20055;-63
2023/11/26 05:31:35;;;;;;;10.25;5.05;;;26.30;2201.60;;;;;;5116563;28;20551;-64
2023/11/26 05:34:01;;;;;;;10.30;5.50;;;26.30;2201.60;;;;;;5115733;28;20809;-62
2023/11/26 05:36:27;;;;;;;11.15;5.82;;;26.30;2201.60;;;;;;5117109;28;20027;-61
2023/11/26 05:38:53;;;;;;;10.60;5.38;;;26.30;2201.60;;;;;;5116773;28;20044;-63
2023/11/26 05:41:29;;;;;;;12.77;6.55;;;26.40;2201.60;;;;;;5113258;28;20027;-63
2023/11/26 05:43:55;;;;;;;11.73;6.05;;;26.40;2201.60;;;;;;5111338;28;20537;-63
2023/11/26 05:46:21;;;;;;;10.70;5.70;;;26.40;2201.60;;;;;;5112280;28;20028;-64
2023/11/26 05:48:46;;;;;;;10.85;5.95;;;26.40;2201.60;;;;;;5116571;28;20023;-63
2023/11/26 05:51:12;;;;;;;13.77;6.80;;;26.40;2201.60;;;;;;5116973;28;20080;-65
2023/11/26 05:53:38;;;;;;;12.68;6.65;;;26.40;2201.60;;;;;;5115981;28;20391;-66
2023/11/26 05:56:07;;;;;;;12.30;6.53;;;26.40;2201.60;;;;;;5117137;28;20023;-64
2023/11/26 05:58:33;;;;;;;12.23;5.93;;;26.40;2201.60;;;;;;5116319;28;20044;-69
2023/11/26 06:00:59;;;;;;;11.18;6.43;;;26.50;2201.60;;;;;;5116226;28;20053;-63
2023/11/26 06:03:25;;;;;;;12.70;6.13;;;26.50;2201.60;;;;;;5111131;28;20710;-61
2023/11/26 06:05:52;;;;;;;12.32;6.13;;;26.10;2201.60;;;;;;5114085;28;20032;-65
2023/11/26 06:08:19;;;;;;;11.02;5.50;;;26.50;2201.60;;;;;;5116448;28;20102;-64
2023/11/26 06:10:44;;;;;;;10.90;6.28;;;26.50;2201.60;;;;;;5116197;28;20076;-62
2023/11/26 06:13:11;;;;;;;15.73;7.88;;;26.50;2201.60;;;;;;5116235;28;20047;-65
2023/11/26 06:15:37;;;;;;;13.38;5.97;;;26.50;2201.60;;;;;;5115337;28;20012;-65
2023/11/26 06:18:03;;;;;;;14.02;7.30;;;26.50;2201.60;;;;;;5115896;28;20039;-64
2023/11/26 06:20:29;;;;;;;13.23;7.57;;;26.50;2201.60;;;;;;5115981;28;20368;-64
2023/11/26 06:22:55;;;;;;;14.00;6.75;;;51.20;2227.20;;;;;;5105951;28;20027;-63
2023/11/26 06:25:20;;;;;;;15.77;7.78;;;26.50;2201.60;;;;;;5111965;28;20027;-66
2023/11/26 06:27:46;;;;;;;15.23;6.70;;;26.50;2201.60;;;;;;5115990;28;20106;-63
2023/11/26 06:30:14;;;;;;;16.38;8.10;;;26.50;2201.60;;;;;;5116219;28;20028;-65
2023/11/26 06:32:40;;;;;;;14.45;7.97;;;26.50;2201.60;;;;;;5115789;27;20106;-65
2023/11/26 06:35:06;;;;;;;11.15;6.25;;;51.20;2227.20;;;;;;5115445;28;20059;-63
2023/11/26 06:37:32;;;;;;;11.20;6.80;;;51.20;2227.20;;;;;;5116015;28;20071;-67
2023/11/26 06:39:57;;;;;;;15.25;7.13;;;51.20;2227.20;;;;;;5115714;28;20094;-64
2023/11/26 06:42:23;;;;;;;10.13;5.63;;;51.30;2227.20;;;;;;5109986;28;20031;-64
2023/11/26 06:44:50;;;;;;;10.88;5.82;;;51.30;2227.20;;;;;;5110562;28;20495;-64
2023/11/26 06:47:15;;;;;;;15.95;7.93;;;51.50;2227.20;;;;;;5114456;28;20023;-64
2023/11/26 06:49:41;;;;;;;16.13;8.32;;;51.60;2227.20;;;;;;5115511;28;20066;-64
2023/11/26 06:52:07;;;;;;;17.58;10.05;;;51.70;2227.20;;;;;;5115864;28;20106;-62
2023/11/26 06:54:33;;;;;;;16.83;8.27;;;51.70;2227.20;;;;;;5115793;28;20027;-66
2023/11/26 06:56:59;;;;;;;18.75;10.02;;;51.70;2227.20;;;;;;5115646;28;20036;-64
2023/11/26 06:59:25;;;;;;;18.45;9.38;;;51.90;2227.20;;;;;;5115474;28;20915;-63
2023/11/26 07:01:50;;;;;;;19.20;10.07;;;51.80;2227.20;;;;;;5115501;28;20016;-64
2023/11/26 07:04:16;;;;;;;19.30;9.35;;;51.80;2227.20;;;;;;5108065;28;20060;-63
2023/11/26 07:06:42;;;;;;;16.38;8.90;;;51.90;2227.20;;;;;;5108740;28;20024;-63
2023/11/26 07:09:09;;;;;;;14.52;7.72;;;51.90;2227.20;;;;;;5115055;27;20035;-63
2023/11/26 07:11:35;;;;;;;14.25;7.03;;;51.90;2227.20;;;;;;5115235;28;20034;-64
2023/11/26 07:14:02;;;;;;;12.45;7.00;;;;;;;;;;5116825;27;20126;-64
2023/11/26 07:16:31;;;;;;;16.23;8.98;;;76.90;2227.20;;;;;;5114845;28;20016;-65
2023/11/26 07:18:56;;;;;;;11.50;7.40;;;76.80;2227.20;;;;;;5112776;27;20540;-67
2023/11/26 07:21:22;;;;;;;10.43;6.00;;;52.00;2227.20;;;;;;5105130;27;20107;-62
2023/11/26 07:23:48;;;;;;;12.38;6.60;;;52.00;2227.20;;;;;;5109031;28;20069;-62
2023/11/26 07:26:21;;;;;;;11.65;7.05;;;52.10;2227.20;;;;;;5107528;27;20042;-64
2023/11/26 07:28:50;;;;;;;12.52;6.75;;;76.80;2227.20;;;;;;5111123;28;20024;-63
2023/11/26 07:31:20;;;;;;;13.05;7.57;;;76.90;2227.20;;;;;;5111856;28;20063;-62
2023/11/26 07:33:47;;;;;;;11.50;7.05;;;;;;;;;;5111736;28;20058;-62
2023/11/26 07:36:14;;;;;;;11.00;6.43;;;;;;;;;;5113165;28;20031;-63
2023/11/26 07:38:41;;;;;;;10.68;6.38;;;77.60;2227.20;;;;;;5114488;28;20487;-62
2023/11/26 07:41:08;;;;;;;10.27;6.55;;;77.70;2227.20;;;;;;5121343;27;20019;-63
2023/11/26 07:43:38;;;;;;;10.23;6.03;;;102.70;2227.20;;;;;;5110510;28;20035;-62
2023/11/26 07:46:04;;;;;;;12.10;6.57;;;102.50;1894.40;;;;;;5094612;28;20032;-63
2023/11/26 07:48:30;;;;;;;11.15;6.97;;;102.40;2201.60;;;;;;5099654;28;20023;-64
2023/11/26 07:50:56;;;;;;;14.45;7.47;;;77.70;2176.00;;;;;;5114369;28;20035;-62
2023/11/26 07:53:24;;;;;;;11.55;6.88;;;102.40;1945.60;;;;;;5114511;28;20039;-65
2023/11/26 07:55:56;;;;;;;12.65;7.13;;;102.70;2227.20;;;;;;5114025;28;20034;-63
2023/11/26 07:58:24;;;;;;;9.95;6.40;;;103.00;2227.20;;;;;;5114108;28;20172;-61
2023/11/26 08:00:50;;;;;;;9.50;6.32;;;128.00;2252.80;;;;;;5114391;28;20020;-63
2023/11/26 08:03:17;;;;;;;11.10;7.07;;;103.20;2227.20;;;;;;5114162;28;20170;-65
2023/11/26 08:05:43;;;;;;;12.02;7.28;;;102.90;2227.20;;;;;;5114337;28;20028;-63
2023/11/26 08:08:09;;;;;;;11.90;6.22;;;102.70;2227.20;;;;;;5105968;28;20514;-63
2023/11/26 08:10:35;;;;;;;10.23;5.75;;;102.50;2227.20;;;;;;5112553;28;20116;-62
2023/11/26 08:13:07;;;;;;;10.32;6.00;;;102.40;2176.00;;;;;;5119744;27;20046;-72
2023/11/26 08:15:34;;;;;;;10.40;6.28;;;77.70;2227.20;;;;;;5119754;27;20040;-62
2023/11/26 08:18:00;;;;;;;9.25;6.00;;;102.40;2227.20;;;;;;5118477;27;20039;-67
2023/11/26 08:20:26;;;;;;;9.02;5.80;;;77.60;2227.20;;;;;;5117739;27;20028;-63
2023/11/26 08:22:52;;;;;;;10.43;5.88;;;77.60;2227.20;;;;;;5095281;28;20031;-67
2023/11/26 08:25:23;;;;;;;8.48;5.60;;;77.50;2227.20;;;;;;5111089;28;20379;-60
2023/11/26 08:27:52;;;;;;;16.00;8.00;;;77.60;2227.20;;;;;;5109436;28;20023;-65
2023/11/26 08:33:03;;;;;;;12.77;7.82;;;102.40;2227.20;;;;;;5114028;28;20407;-62
2023/11/26 08:35:29;;;;;;;15.95;8.45;;;77.70;2227.20;;;;;;5113506;28;20020;-71
2023/11/26 08:38:01;;;;;;;13.25;8.10;;;77.70;2227.20;;;;;;5111655;28;20036;-63
2023/11/26 08:40:33;;;;;;;20.33;11.07;;;77.60;2227.20;;;;;;5116365;28;20106;-64
2023/11/26 08:43:00;;;;;;;21.40;11.50;;;102.60;2227.20;;;;;;5134695;27;20525;-63
2023/11/26 08:45:25;;;;;;;19.80;10.18;;;128.50;2252.80;;;;;;5131403;27;20352;-66
2023/11/26 08:47:54;;;;;;;14.65;7.95;;;154.20;2252.80;;;;;;5110748;28;20027;-64
2023/11/26 08:50:20;;;;;;;16.60;9.23;;;154.40;2252.80;;;;;;5098761;28;20388;-68
2023/11/26 08:52:46;;;;;;;14.15;8.10;;;204.80;2252.80;;;;;;5093117;28;20538;-64
2023/11/26 08:55:12;;;;;;;9.82;5.82;;;;;;;;;;5108986;28;20082;-64
2023/11/26 08:57:41;;;;;;;9.88;6.05;;;;;;;;;;5102389;28;20426;-64
2023/11/26 09:00:11;;;;;;;13.85;7.82;;;;;;;;;;5111591;28;20046;-65
2023/11/26 09:02:43;;;;;;;13.27;7.35;;;204.90;2252.80;;;;;;5115507;27;20051;-64
2023/11/26 09:05:09;;;;;;;10.40;5.35;;;;;;;;;;5113078;28;20379;-67
2023/11/26 09:07:42;;;;;;;9.80;6.88;;;179.50;2252.80;;;;;;5115463;28;20043;-65
2023/11/26 09:10:11;;;;;;;10.77;6.38;;;179.70;2252.80;;;;;;5114320;28;20479;-64
2023/11/26 09:12:38;;;;;;;10.20;6.07;;;179.30;2252.80;;;;;;5109480;28;20035;-62
2023/11/26 09:15:07;;;;;;;8.00;5.60;;;179.80;2252.80;;;;;;5108012;28;20027;-67
2023/11/26 09:17:33;;;;;;;12.43;7.72;;;179.30;2252.80;;;;;;5093334;28;20075;-64
2023/11/26 09:19:59;;;;;;;17.50;10.43;;;;;;;;;;5093320;28;20012;-65
2023/11/26 09:22:30;;;;;;;15.25;8.88;;;;;;;;;;5118749;28;20035;-64
2023/11/26 09:24:56;;;;;;;14.02;8.20;;;256.10;2252.80;;;;;;5112768;28;20016;-68
2023/11/26 09:27:21;;;;;;;10.85;5.88;;;256.70;2252.80;;;;;;5118106;28;20025;-65
2023/11/26 09:29:47;;;;;;;11.93;6.40;;;281.60;2278.40;;;;;;5101593;28;20026;-73
2023/11/26 09:32:13;;;;;;;7.22;4.50;;;256.90;2252.80;;;;;;5109364;28;20118;-66
2023/11/26 09:34:41;;;;;;;8.13;5.55;;;;;;;;;;5105037;28;20372;-66
2023/11/26 09:37:10;;;;;;;8.60;5.60;;;;;;;;;;5113454;28;20024;-63
2023/11/26 09:39:35;;;;;;;16.02;6.32;;;204.90;2252.80;;;;;;5104310;28;20417;-69
2023/11/26 09:42:03;;;;;;;6.50;4.88;;;;;;;;;;5114278;27;20026;-63
2023/11/26 09:44:30;;;;;;;8.02;5.00;;;179.40;2252.80;;;;;;5122073;27;20024;-65
2023/11/26 09:46:56;;;;;;;7.40;4.30;;;154.50;2252.80;;;;;;5116537;28;20043;-65
2023/11/26 09:49:23;;;;;;;10.13;5.65;;;154.40;2252.80;;;;;;5103558;28;20504;-63
2023/11/26 09:52:07;;;;;;;9.68;4.55;;;179.30;2252.80;;;;;;5112417;27;20028;-65
2023/11/26 09:54:41;;;;;;;10.13;5.60;;;154.40;2252.80;;;;;;5096792;28;20031;-64
2023/11/26 09:57:09;;;;;;;9.23;5.00;;;154.10;2252.80;;;;;;5095644;28;20039;-66
2023/11/26 09:59:40;;;;;;;8.93;4.63;;;153.80;2252.80;;;;;;5115061;28;20755;-64
2023/11/26 10:02:10;;;;;;;6.38;3.70;;;153.70;2252.80;;;;;;5115693;28;20028;-66
2023/11/26 10:04:48;;;;;;;11.48;5.10;;;153.60;2252.80;;;;;;5116461;28;20051;-64
2023/11/26 10:07:32;;;;;;;22.52;6.70;;;128.90;2252.80;;;;;;5108673;28;20024;-64
2023/11/26 10:10:03;;;;;;;14.20;6.05;;;153.60;2252.80;;;;;;5095986;28;20031;-67
2023/11/26 10:12:29;;;;;;;10.23;5.15;;;153.70;2252.80;;;;;;5104047;28;20046;-64
2023/11/26 10:15:05;;;;;;;8.40;4.32;;;154.10;2252.80;;;;;;5112820;27;20089;-64
2023/11/26 10:17:31;;;;;;;;;;;;;;;;;;5115635;28;20043;-62
2023/11/26 10:20:16;;;;;;;8.10;4.10;;;205.30;2252.80;;;;;;5115339;28;19991;-64
2023/11/26 10:22:46;;;;;;;5.53;3.47;;;;;;;;;;5126223;27;20023;-69
2023/11/26 10:25:12;;;;;;;5.50;3.45;;;;;;;;;;5126651;27;20104;-63
2023/11/26 10:27:38;;;;;;;6.80;4.18;;;205.60;2252.80;;;;;;5124401;27;20151;-68
2023/11/26 10:30:04;;;;;;;6.43;3.20;;;205.20;2252.80;;;;;;5123723;27;20035;-63
2023/11/26 10:32:30;;;;;;;8.60;4.80;;;180.10;2252.80;;;;;;5122397;27;20031;-72
2023/11/26 10:34:56;;;;;;;6.82;3.50;;;179.80;2252.80;;;;;;5127143;27;20023;-63
2023/11/26 10:37:22;;;;;;;6.70;3.58;;;179.80;2252.80;;;;;;5124891;27;20043;-64
2023/11/26 10:39:52;;;;;;;7.53;3.83;;;179.50;2252.80;;;;;;5125249;27;20550;-71
2023/11/26 10:42:27;;;;;;;4.32;2.42;;;179.40;2252.80;;;;;;5123493;27;20019;-70
2023/11/26 10:44:53;;;;;;;;;;;204.90;2252.80;;;;;;5122014;27;20059;-63
2023/11/26 10:47:26;;;;;;;6.47;3.00;;;204.90;2252.80;;;;;;5129457;27;19910;-62
2023/11/26 10:49:56;;;;;;;4.28;2.42;;;179.90;2252.80;;;;;;5124216;27;20031;-63
2023/11/26 10:52:22;;;;;;;7.82;3.90;;;;;;;;;;5123875;27;20015;-73
2023/11/26 10:54:57;;;;;;;6.20;3.70;;;;;;;;;;5121878;27;20031;-68
2023/11/26 10:57:41;;;;;;;8.38;4.80;;;256.30;1996.80;;;;;;5123582;27;20031;-64
2023/11/26 11:00:16;;;;;;;5.43;3.10;;;;;;;;;;5124972;27;20030;-63
2023/11/26 11:02:44;;;;;;;5.75;3.63;;;281.90;2278.40;;;;;;5121655;27;20020;-64
2023/11/26 11:05:11;;;;;;;5.93;3.10;;;;;;;;;;5122965;27;20430;-63
2023/11/26 11:07:39;;;;;;;4.70;2.25;;;;;;;;;;5124630;27;20035;-63
2023/11/26 11:10:23;;;;;;;3.10;1.92;;;;;;;;;;5125571;27;20397;-64
2023/11/26 11:12:55;;;;;;;4.07;2.50;;;;;;;;;;5124880;27;20413;-72
2023/11/26 11:15:26;;;;;;;7.10;3.80;;;;;;;;;;5109234;27;20039;-75
2023/11/26 11:17:52;;;;;;;4.90;2.78;;;;;;;;;;5124624;27;20458;-64
2023/11/26 11:20:18;;;;;;;5.07;3.00;;;;;;;;;;5123566;27;20022;-64
2023/11/26 11:22:50;;;;;;;4.70;2.38;;;;;;;;;;5119572;27;20027;-65
2023/11/26 11:25:19;;;;;;;5.53;2.47;;;256.60;1740.80;;;;;;5118376;27;20030;-63
2023/11/26 11:27:50;;;;;;;5.20;2.38;;;256.80;2176.00;;;;;;5121705;27;20028;-63
2023/11/26 11:30:31;;;;;;;3.13;1.92;;;256.50;2252.80;;;;;;5115250;27;20026;-63
2023/11/26 11:33:10;;;;;;;2.92;1.67;;;256.80;1766.40;;;;;;5117977;27;20487;-64
2023/11/26 11:35:41;;;;;;;3.22;1.90;;;256.30;1766.40;;;;;;5112451;27;20034;-63
2023/11/26 11:38:12;;;;;;;7.40;3.80;;;256.60;1689.60;;;;;;5113807;27;20130;-65
2023/11/26 11:40:56;;;;;;;4.22;2.22;;;;;;;;;;5113636;28;20027;-64
2023/11/26 11:43:23;;;;;;;;;;;;;;;;;;5120047;27;20019;-62
2023/11/26 11:45:49;;;;;;;5.07;3.00;;;;;;;;;;5117259;27;19911;-68
2023/11/26 11:48:39;;;;;;;4.88;2.92;;;282.40;2124.80;;;;;;5116360;27;20028;-64
2023/11/26 11:51:34;;;;;;;2.83;1.83;;;282.10;1587.20;;;;;;5121748;27;20027;-64
2023/11/26 11:54:10;;;;;;;3.63;1.75;;;;;;;;;;5119544;27;20024;-63
2023/11/26 11:56:43;;;;;;;4.30;1.92;;;281.90;1510.40;;;;;;5120958;27;20071;-63
2023/11/26 11:59:10;;;;;;;3.58;2.40;;;256.70;1484.80;;;;;;5111609;27;20510;-71
2023/11/26 12:01:39;;;;;;;3.85;2.10;;;;;;;;;;5110724;27;20111;-66
2023/11/26 12:04:06;;;;;;;3.80;2.25;;;230.50;2252.80;;;;;;5121429;27;20031;-61
2023/11/26 12:06:33;;;;;;;4.72;2.30;;;205.20;1638.40;;;;;;5124266;27;20038;-64
2023/11/26 12:09:00;;;;;;;4.10;1.80;;;204.90;1740.80;;;;;;5122724;27;20031;-63
2023/11/26 12:11:27;;;;;;;4.57;1.90;;;180.00;1766.40;;;;;;5117289;27;20155;-63
2023/11/26 12:13:55;;;;;;;5.25;2.15;;;205.10;1766.40;;;;;;5117908;27;20079;-62
2023/11/26 12:16:31;;;;;;;3.38;1.88;;;230.40;1664.00;;;;;;5115322;27;20019;-70
2023/11/26 12:18:56;;;;;;;3.83;1.95;;;205.40;1689.60;;;;;;5115812;27;20039;-69
2023/11/26 12:21:22;;;;;;;9.10;4.03;;;205.30;1715.20;;;;;;5116157;27;20049;-69
2023/11/26 12:23:51;;;;;;;8.10;3.53;;;205.10;1740.80;;;;;;5126903;27;20047;-64
2023/11/26 12:26:17;;;;;;;8.50;3.22;;;205.20;1715.20;;;;;;5121845;28;20467;-65
2023/11/26 12:28:47;;;;;;;7.78;4.30;;;205.00;1740.80;;;;;;5126943;27;20088;-66
2023/11/26 12:31:14;;;;;;;4.07;2.40;;;205.30;1664.00;;;;;;5130084;27;20031;-73
2023/11/26 12:33:44;;;;;;;3.55;2.10;;;205.50;1664.00;;;;;;5114539;27;20042;-65
2023/11/26 12:36:11;;;;;;;4.00;2.22;;;;;;;;;;5117178;28;20034;-64
2023/11/26 12:38:41;;;;;;;7.20;2.72;;;230.90;1612.80;;;;;;5107781;27;20138;-64
2023/11/26 12:41:09;;;;;;;6.05;2.97;;;230.80;2252.80;;;;;;5106180;28;20062;-63
2023/11/26 12:43:36;;;;;;;6.78;2.97;;;205.30;1664.00;;;;;;5111494;28;20026;-65
2023/11/26 12:46:20;;;;;;;6.30;3.15;;;205.30;1740.80;;;;;;5113221;28;20036;-73
2023/11/26 12:48:47;;;;;;;7.05;2.85;;;204.90;1740.80;;;;;;5112950;28;20051;-68
2023/11/26 12:51:16;;;;;;;13.90;5.28;;;205.30;1689.60;;;;;;5116052;28;20040;-68
2023/11/26 12:53:42;;;;;;;7.30;3.65;;;230.50;1638.40;;;;;;5113974;27;20032;-74